Iola, KS (66749)

3:10 AM CDT on October 01, 2014 (GMT -0500)
Casa Bravo | Change Station
CLOSE
Current Station
Personal Weather Station
Location: Chanute, KS
Elevation: 998 ft
Nearby Weather Stations

Elev 998 ft 37.67 °N, 95.47 °W | Updated 8 minutes ago

Mostly Cloudy
Mostly Cloudy
67.9 °F
Feels Like 67.9 °F
N
4.2
Wind Variable Wind from SSE

Today
High -- | Low -- °F
--% Chance of Precip.
Yesterday
High -- | Low -- °F
Precip. -- in
7:17 AM 7:04 PM
Waxing Crescent, 45% visible
Pressure 29.74 in
Visibility 10.0 miles
Clouds Mostly Cloudy 10000 ft
Mostly Cloudy 12000 ft
Dew Point 59 °F
Humidity 73%
Rainfall 0.00 in
Snow Depth Not available.
UV 0 out of 12
Pollen 4.60 out of 12
Air Quality Not available.
Flu Activity Not available.
METAR KCNU 010752Z AUTO 15009KT 10SM BKN100 BKN120 21/16 A2977 RMK AO2 SLP070 T02060161

More Conditions Fewer Conditions

Pressure 29.74 in
Visibility 10.0 miles
Clouds Mostly Cloudy 10000 ft
Mostly Cloudy 12000 ft
Dew Point 59 °F
Humidity 73%
Rainfall 0.00 in
Snow Depth Not available.
UV 0 out of 12
Pollen 4.60 out of 12
Air Quality Not available.
Flu Activity Not available.
METAR KCNU 010752Z AUTO 15009KT 10SM BKN100 BKN120 21/16 A2977 RMK AO2 SLP070 T02060161

More Conditions Fewer Conditions

10-Day Weather Forecast

Almanac

Astronomy

Oct. 01, 2014 Rise Set
Actual Time 7:17 AM CDT 7:04 PM CDT
Civil Twilight 6:51 AM CDT 7:30 PM CDT
Nautical Twilight 6:20 AM CDT 8:01 PM CDT
Astronomical Twilight 5:49 AM CDT 8:31 PM CDT
Moon 2:14 PM CDT No Moon Set
Length of Visible Light 12h 39m
Length of Day
11h 47m
Tomorrow will be 2m 25s shorter.
Waxing Crescent, 45% of the Moon is Illuminated
Today
Waxing Crescent
Oct 1
First Quarter
Oct 8
Full
Oct 15
Last Quarter
Oct 23
New

Today's Extremes

State Highs State Lows

Community

WunderPhotos

Upload Photos

1,757,902 photos uploaded!

Nearby

Snow Depth

Station Depth Elevation
No new snow has been reported.

Earthquake Activity

City Distance Mag. Time & Date
Parsons, Kansas 37 miles 3.0 7:33 PM CDT
2014-09-30
Perry, Oklahoma 158 miles 2.6 2:34 PM CDT
2014-09-30
Yale, Oklahoma 138 miles 2.6 11:29 AM CDT
2014-09-30
Perry, Oklahoma 147 miles 2.6 9:43 AM CDT
2014-09-30
Minimum magnitude displayed is 2.5.

Coastal Water Temperatures

Place Temperature
No Stations Reporting

Nearby Weather Stations